Back to Top

Language: 

My Weather Underground Personal Weather Station Historical Data with Graphs...

Delerius Weather Station Historical Data
Daily Summary for January 5, 2018 Units:  English    Metric   Both
« Previous Day
Next Day »
Daily Weekly Monthly Yearly Custom
  High: Low: Average:
Temperature: 41.5 °F 34.2 °F 38.4 °F
Dew Point: 38.9 °F 32.3 °F 36.1 °F
Humidity: 96 % 88 % 92 %
Wind Speed: 8.0 mph 0.0 mph 2.2 mph
Wind Gust: 14.0 mph - -
Wind:- - West
Pressure: 29.54 in 29.22 in -
Precipitation: 0.00 in    
Historical Graphs
 
 
Tabular Data for January 5, 2018
Time Temperature Dew Point Pressure Wind Wind Speed Wind Gust Humidity Rainfall Rate (Hourly) solar Conditions
00:01 40.6 °F 37.4 °F 29.25 in West 7.0 mph 10.0 mph 88 % 0.00 in 0 W/m2
00:06 40.6 °F 37.4 °F 29.25 in West 6.0 mph 10.0 mph 88 % 0.00 in 0 W/m2
00:11 40.5 °F 37.2 °F 29.25 in West 6.0 mph 9.0 mph 88 % 0.00 in 0 W/m2
00:16 40.3 °F 37.0 °F 29.25 in West 7.0 mph 10.0 mph 88 % 0.00 in 0 W/m2
00:19 40.3 °F 37.0 °F 29.25 in West 8.0 mph 13.0 mph 88 % 0.00 in 0 W/m2
00:24 40.1 °F 36.8 °F 29.25 in West 8.0 mph 12.0 mph 88 % 0.00 in 0 W/m2
00:29 40.1 °F 36.8 °F 29.25 in West 7.0 mph 10.0 mph 88 % 0.00 in 0 W/m2
00:31 40.1 °F 36.8 °F 29.25 in West 6.0 mph 9.0 mph 88 % 0.00 in 0 W/m2
00:37 39.9 °F 36.7 °F 29.25 in West 4.0 mph 7.0 mph 88 % 0.00 in 0 W/m2
00:38 39.9 °F 36.7 °F 29.25 in West 5.0 mph 9.0 mph 88 % 0.00 in 0 W/m2
00:43 39.7 °F 36.5 °F 29.25 in West 8.0 mph 11.0 mph 88 % 0.00 in 0 W/m2
00:44 39.7 °F 36.5 °F 29.25 in West 8.0 mph 14.0 mph 88 % 0.00 in 0 W/m2
00:48 39.7 °F 36.5 °F 29.25 in West 4.0 mph 8.0 mph 88 % 0.00 in 0 W/m2
00:50 39.7 °F 36.5 °F 29.25 in West 4.0 mph 8.0 mph 88 % 0.00 in 0 W/m2
00:53 39.6 °F 36.3 °F 29.25 in West 6.0 mph 8.0 mph 88 % 0.00 in 0 W/m2
00:58 39.4 °F 36.1 °F 29.24 in West 7.0 mph 10.0 mph 88 % 0.00 in 0 W/m2
01:03 39.4 °F 36.1 °F 29.24 in WSW 8.0 mph 11.0 mph 88 % 0.00 in 0 W/m2
01:08 39.4 °F 36.1 °F 29.24 in West 7.0 mph 13.0 mph 88 % 0.00 in 0 W/m2
01:11 39.4 °F 36.1 °F 29.24 in West 7.0 mph 10.0 mph 88 % 0.00 in 0 W/m2
01:17 39.4 °F 36.1 °F 29.24 in West 7.0 mph 11.0 mph 88 % 0.00 in 0 W/m2
01:21 39.2 °F 35.9 °F 29.24 in WNW 6.0 mph 9.0 mph 88 % 0.00 in 0 W/m2
01:27 39.0 °F 36.1 °F 29.24 in West 6.0 mph 8.0 mph 89 % 0.00 in 0 W/m2
01:30 39.0 °F 36.1 °F 29.25 in West 6.0 mph 9.0 mph 89 % 0.00 in 0 W/m2
01:35 38.8 °F 35.9 °F 29.24 in West 6.0 mph 9.0 mph 89 % 0.00 in 0 W/m2
01:38 38.8 °F 35.9 °F 29.24 in West 7.0 mph 11.0 mph 89 % 0.00 in 0 W/m2
01:43 38.8 °F 35.9 °F 29.24 in West 5.0 mph 8.0 mph 89 % 0.00 in 0 W/m2
01:48 38.8 °F 35.9 °F 29.24 in WNW 6.0 mph 8.0 mph 89 % 0.00 in 0 W/m2
01:49 38.8 °F 35.9 °F 29.24 in WNW 6.0 mph 8.0 mph 89 % 0.00 in 0 W/m2
01:51 38.8 °F 35.9 °F 29.24 in West 7.0 mph 8.0 mph 89 % 0.00 in 0 W/m2
01:56 38.8 °F 35.9 °F 29.24 in WNW 6.0 mph 8.0 mph 89 % 0.00 in 0 W/m2
01:57 38.8 °F 35.9 °F 29.24 in WNW 7.0 mph 8.0 mph 89 % 0.00 in 0 W/m2
02:02 38.8 °F 36.2 °F 29.24 in WNW 7.0 mph 10.0 mph 90 % 0.00 in 0 W/m2
02:04 38.8 °F 36.2 °F 29.24 in WNW 8.0 mph 11.0 mph 90 % 0.00 in 0 W/m2
02:09 38.8 °F 36.2 °F 29.24 in WNW 6.0 mph 8.0 mph 90 % 0.00 in 0 W/m2
02:10 38.8 °F 36.2 °F 29.24 in WNW 6.0 mph 9.0 mph 90 % 0.00 in 0 W/m2
02:15 38.8 °F 36.2 °F 29.24 in WNW 6.0 mph 9.0 mph 90 % 0.00 in 0 W/m2
02:19 38.8 °F 36.2 °F 29.24 in West 6.0 mph 9.0 mph 90 % 0.00 in 0 W/m2
02:21 39.0 °F 36.3 °F 29.24 in West 7.0 mph 10.0 mph 90 % 0.00 in 0 W/m2
02:25 39.0 °F 36.3 °F 29.24 in West 7.0 mph 10.0 mph 90 % 0.00 in 0 W/m2
02:30 39.2 °F 36.5 °F 29.23 in West 7.0 mph 9.0 mph 90 % 0.00 in 0 W/m2
02:32 39.2 °F 36.5 °F 29.23 in West 7.0 mph 9.0 mph 90 % 0.00 in 0 W/m2
02:37 39.2 °F 36.5 °F 29.23 in West 8.0 mph 10.0 mph 90 % 0.00 in 0 W/m2
02:41 39.4 °F 36.7 °F 29.23 in West 8.0 mph 10.0 mph 90 % 0.00 in 0 W/m2
02:46 39.4 °F 36.7 °F 29.23 in WNW 6.0 mph 9.0 mph 90 % 0.00 in 0 W/m2
02:52 39.4 °F 36.7 °F 29.23 in WNW 6.0 mph 10.0 mph 90 % 0.00 in 0 W/m2
02:57 39.4 °F 36.7 °F 29.23 in WNW 5.0 mph 9.0 mph 90 % 0.00 in 0 W/m2
03:03 39.6 °F 36.9 °F 29.23 in WNW 2.0 mph 7.0 mph 90 % 0.00 in 0 W/m2
03:07 39.6 °F 36.9 °F 29.23 in WNW 1.0 mph 4.0 mph 90 % 0.00 in 0 W/m2
03:12 39.4 °F 36.4 °F 29.24 in Calm     89 % 0.00 in 0 W/m2
03:16 39.4 °F 36.7 °F 29.24 in Calm     90 % 0.00 in 0 W/m2
03:21 39.4 °F 36.4 °F 29.24 in Calm     89 % 0.00 in 0 W/m2
03:23 39.4 °F 36.4 °F 29.24 in Calm     89 % 0.00 in 0 W/m2
03:28 39.0 °F 36.1 °F 29.23 in Calm     89 % 0.00 in 0 W/m2
03:29 39.0 °F 36.1 °F 29.23 in Calm     89 % 0.00 in 0 W/m2
03:34 39.0 °F 36.3 °F 29.23 in WNW 1.0 mph 5.0 mph 90 % 0.00 in 0 W/m2
03:35 39.0 °F 36.3 °F 29.23 in WNW 1.0 mph 5.0 mph 90 % 0.00 in 0 W/m2
03:40 38.8 °F 36.2 °F 29.23 in WNW 2.0 mph 5.0 mph 90 % 0.00 in 0 W/m2
03:45 38.8 °F 36.2 °F 29.23 in West 2.0 mph 7.0 mph 90 % 0.00 in 0 W/m2
03:46 39.0 °F 36.3 °F 29.23 in West 3.0 mph 7.0 mph 90 % 0.00 in 0 W/m2
03:52 39.0 °F 36.6 °F 29.23 in West 2.0 mph 5.0 mph 91 % 0.00 in 0 W/m2
03:57 39.0 °F 36.3 °F 29.23 in Calm   5.0 mph 90 % 0.00 in 0 W/m2
04:02 39.0 °F 36.3 °F 29.23 in Calm   2.0 mph 90 % 0.00 in 0 W/m2
04:04 39.0 °F 36.3 °F 29.23 in Calm   1.0 mph 90 % 0.00 in 0 W/m2
04:05 39.0 °F 36.3 °F 29.23 in Calm   1.0 mph 90 % 0.00 in 0 W/m2
04:10 39.0 °F 36.3 °F 29.23 in Calm   1.0 mph 90 % 0.00 in 0 W/m2
04:14 39.0 °F 36.3 °F 29.23 in Calm     90 % 0.00 in 0 W/m2
04:15 39.0 °F 36.3 °F 29.23 in Calm     90 % 0.00 in 0 W/m2
04:20 38.8 °F 36.2 °F 29.23 in West 1.0 mph 3.0 mph 90 % 0.00 in 0 W/m2
04:25 38.8 °F 36.4 °F 29.22 in West 1.0 mph 3.0 mph 91 % 0.00 in 0 W/m2
04:27 38.8 °F 36.4 °F 29.22 in West 1.0 mph 4.0 mph 91 % 0.00 in 0 W/m2
04:32 38.8 °F 36.4 °F 29.22 in West 3.0 mph 5.0 mph 91 % 0.00 in 0 W/m2
04:33 38.8 °F 36.4 °F 29.22 in West 3.0 mph 5.0 mph 91 % 0.00 in 0 W/m2
04:38 38.8 °F 36.4 °F 29.22 in WSW 3.0 mph 6.0 mph 91 % 0.00 in 0 W/m2
04:43 38.8 °F 36.2 °F 29.22 in WSW 1.0 mph 4.0 mph 90 % 0.00 in 0 W/m2
04:48 38.8 °F 36.2 °F 29.22 in Calm   4.0 mph 90 % 0.00 in 0 W/m2
04:53 38.8 °F 36.2 °F 29.22 in Calm   2.0 mph 90 % 0.00 in 0 W/m2
04:54 38.8 °F 36.2 °F 29.22 in Calm   1.0 mph 90 % 0.00 in 0 W/m2
04:59 38.7 °F 36.0 °F 29.22 in Calm     90 % 0.00 in 0 W/m2
05:00 38.7 °F 36.0 °F 29.22 in Calm   1.0 mph 90 % 0.00 in 0 W/m2
05:05 38.7 °F 36.0 °F 29.22 in Calm     90 % 0.00 in 0 W/m2
05:10 38.7 °F 36.0 °F 29.22 in WSW 1.0 mph 2.0 mph 90 % 0.00 in 0 W/m2
05:15 38.5 °F 36.1 °F 29.22 in South 2.0 mph 5.0 mph 91 % 0.00 in 0 W/m2
05:16 38.5 °F 36.1 °F 29.22 in SSE 2.0 mph 5.0 mph 91 % 0.00 in 0 W/m2
05:21 38.5 °F 36.1 °F 29.22 in SSE 1.0 mph 4.0 mph 91 % 0.00 in 0 W/m2
05:23 38.7 °F 36.3 °F 29.22 in South 1.0 mph 4.0 mph 91 % 0.00 in 0 W/m2
05:26 38.7 °F 36.3 °F 29.22 in SSW 3.0 mph 6.0 mph 91 % 0.00 in 0 W/m2
05:31 38.7 °F 36.3 °F 29.22 in Calm   2.0 mph 91 % 0.00 in 0 W/m2
05:34 38.7 °F 36.3 °F 29.22 in Calm   2.0 mph 91 % 0.00 in 0 W/m2
05:39 38.7 °F 36.3 °F 29.22 in SW 1.0 mph 4.0 mph 91 % 0.00 in 0 W/m2
05:44 38.7 °F 36.3 °F 29.23 in SW 1.0 mph 5.0 mph 91 % 0.00 in 0 W/m2
05:45 38.7 °F 36.3 °F 29.23 in SSW 1.0 mph 5.0 mph 91 % 0.00 in 0 W/m2
05:50 38.7 °F 36.3 °F 29.23 in South 4.0 mph 6.0 mph 91 % 0.00 in 0 W/m2
05:55 39.0 °F 36.6 °F 29.23 in SSW 7.0 mph 11.0 mph 91 % 0.00 in 0 W/m2
06:00 39.2 °F 36.8 °F 29.23 in SSW 6.0 mph 10.0 mph 91 % 0.00 in 0 W/m2
06:05 39.4 °F 37.0 °F 29.23 in SSW 5.0 mph 7.0 mph 91 % 0.00 in 0 W/m2
06:06 39.4 °F 37.0 °F 29.22 in SSW 5.0 mph 7.0 mph 91 % 0.00 in 0 W/m2
06:11 39.4 °F 36.7 °F 29.22 in SSW 4.0 mph 6.0 mph 90 % 0.00 in 0 W/m2
06:13 39.4 °F 36.7 °F 29.23 in SSW 3.0 mph 6.0 mph 90 % 0.00 in 0 W/m2
06:18 39.4 °F 36.7 °F 29.22 in SW 5.0 mph 8.0 mph 90 % 0.00 in 0 W/m2
06:23 39.2 °F 36.5 °F 29.22 in WSW 3.0 mph 5.0 mph 90 % 0.00 in 0 W/m2
06:28 39.2 °F 36.5 °F 29.22 in WSW 1.0 mph 3.0 mph 90 % 0.00 in 0 W/m2
06:29 39.2 °F 36.5 °F 29.22 in WSW 1.0 mph 5.0 mph 90 % 0.00 in 0 W/m2
06:34 39.0 °F 36.3 °F 29.22 in SW 1.0 mph 4.0 mph 90 % 0.00 in 0 W/m2
06:40 39.0 °F 36.3 °F 29.22 in Calm     90 % 0.00 in 0 W/m2
06:42 38.8 °F 36.2 °F 29.22 in Calm   1.0 mph 90 % 0.00 in 0 W/m2
06:47 38.7 °F 36.0 °F 29.22 in Calm     90 % 0.00 in 0 W/m2
06:50 38.7 °F 36.0 °F 29.22 in Calm     90 % 0.00 in 0 W/m2
06:55 38.5 °F 35.8 °F 29.22 in Calm     90 % 0.00 in 0 W/m2
07:01 38.1 °F 35.7 °F 29.22 in Calm   2.0 mph 91 % 0.00 in 0 W/m2
07:04 38.1 °F 35.7 °F 29.22 in SSE 1.0 mph 2.0 mph 91 % 0.00 in 0 W/m2
07:09 38.1 °F 35.7 °F 29.22 in Calm   2.0 mph 91 % 0.00 in 0 W/m2
07:11 38.1 °F 35.7 °F 29.23 in Calm   2.0 mph 91 % 0.00 in 0 W/m2
07:17 37.9 °F 35.5 °F 29.23 in Calm   2.0 mph 91 % 0.00 in 0 W/m2
07:20 37.9 °F 35.5 °F 29.23 in Calm   1.0 mph 91 % 0.00 in 0 W/m2
07:21 37.9 °F 35.5 °F 29.23 in Calm   2.0 mph 91 % 0.00 in 0 W/m2
07:26 37.9 °F 35.5 °F 29.23 in Calm   1.0 mph 91 % 0.00 in 0 W/m2
07:31 37.9 °F 35.5 °F 29.23 in SSE 1.0 mph 2.0 mph 91 % 0.00 in 0 W/m2
07:36 37.9 °F 35.8 °F 29.23 in Calm   2.0 mph 92 % 0.00 in 0 W/m2
07:41 37.9 °F 35.8 °F 29.23 in Calm     92 % 0.00 in 0 W/m2
07:43 37.9 °F 35.8 °F 29.23 in Calm     92 % 0.00 in 0 W/m2
07:48 37.9 °F 35.8 °F 29.23 in Calm     92 % 0.00 in 0 W/m2
07:49 37.9 °F 35.8 °F 29.23 in Calm   1.0 mph 92 % 0.00 in 0 W/m2
07:54 37.9 °F 35.8 °F 29.23 in Calm   2.0 mph 92 % 0.00 in 0 W/m2
07:57 37.9 °F 35.8 °F 29.23 in Calm     92 % 0.00 in 0 W/m2
08:02 37.8 °F 35.6 °F 29.23 in Calm     92 % 0.00 in 0 W/m2
08:03 37.8 °F 35.6 °F 29.23 in Calm     92 % 0.00 in 0 W/m2
08:05 37.8 °F 35.6 °F 29.23 in Calm   1.0 mph 92 % 0.00 in 0 W/m2
08:10 37.8 °F 35.6 °F 29.23 in Calm     92 % 0.00 in 0 W/m2
08:12 37.8 °F 35.6 °F 29.23 in Calm     92 % 0.00 in 0 W/m2
08:17 37.8 °F 35.6 °F 29.23 in Calm     92 % 0.00 in 0 W/m2
08:20 37.8 °F 35.6 °F 29.23 in Calm     92 % 0.00 in 0 W/m2
08:25 37.8 °F 35.6 °F 29.23 in Calm     92 % 0.00 in 0 W/m2
08:26 37.8 °F 35.6 °F 29.23 in Calm   2.0 mph 92 % 0.00 in 0 W/m2
08:31 37.8 °F 35.6 °F 29.23 in Calm   1.0 mph 92 % 0.00 in 5 W/m2
08:32 37.8 °F 35.6 °F 29.23 in Calm   1.0 mph 92 % 0.00 in 5 W/m2
08:37 37.8 °F 35.6 °F 29.22 in Calm   1.0 mph 92 % 0.00 in 9 W/m2
08:40 37.8 °F 35.6 °F 29.22 in SE 1.0 mph 2.0 mph 92 % 0.00 in 11 W/m2
08:45 37.9 °F 35.8 °F 29.22 in Calm   1.0 mph 92 % 0.00 in 14 W/m2
08:47 37.9 °F 35.8 °F 29.22 in Calm   1.0 mph 92 % 0.00 in 14 W/m2
08:52 37.9 °F 36.1 °F 29.22 in ESE 1.0 mph 4.0 mph 93 % 0.00 in 12 W/m2
08:55 37.9 °F 36.1 °F 29.22 in Calm   2.0 mph 93 % 0.00 in 14 W/m2
09:01 37.9 °F 36.1 °F 29.22 in Calm   2.0 mph 93 % 0.00 in 16 W/m2
09:02 38.1 °F 36.3 °F 29.22 in Calm     93 % 0.00 in 16 W/m2
09:05 37.9 °F 36.1 °F 29.22 in Calm     93 % 0.00 in 14 W/m2
09:07 37.9 °F 36.1 °F 29.22 in Calm     93 % 0.00 in 14 W/m2
09:12 37.9 °F 36.1 °F 29.22 in Calm     93 % 0.00 in 12 W/m2
09:13 38.1 °F 36.3 °F 29.22 in Calm     93 % 0.00 in 14 W/m2
09:19 38.1 °F 36.3 °F 29.22 in ESE 2.0 mph 3.0 mph 93 % 0.00 in 18 W/m2
09:24 38.1 °F 36.3 °F 29.22 in ESE 1.0 mph 2.0 mph 93 % 0.00 in 25 W/m2
09:28 38.1 °F 36.3 °F 29.23 in Calm     93 % 0.00 in 28 W/m2
09:29 38.1 °F 36.3 °F 29.23 in Calm     93 % 0.00 in 28 W/m2
09:34 38.1 °F 36.3 °F 29.22 in Calm     93 % 0.00 in 35 W/m2
09:35 38.1 °F 36.3 °F 29.22 in Calm     93 % 0.00 in 40 W/m2
09:41 38.3 °F 36.5 °F 29.22 in Calm   1.0 mph 93 % 0.00 in 42 W/m2
09:46 38.5 °F 36.6 °F 29.22 in Calm     93 % 0.00 in 37 W/m2
09:50 38.5 °F 36.6 °F 29.22 in Calm     93 % 0.00 in 32 W/m2
09:51 38.5 °F 36.6 °F 29.22 in Calm     93 % 0.00 in 32 W/m2
09:56 38.5 °F 36.6 °F 29.22 in Calm     93 % 0.00 in 30 W/m2
09:57 38.5 °F 36.6 °F 29.22 in Calm     93 % 0.00 in 30 W/m2
09:59 38.5 °F 36.6 °F 29.22 in Calm     93 % 0.00 in 32 W/m2
10:04 38.5 °F 36.9 °F 29.22 in Calm   1.0 mph 94 % 0.00 in 33 W/m2
10:05 38.7 °F 37.1 °F 29.22 in Calm   1.0 mph 94 % 0.00 in 33 W/m2
10:10 38.7 °F 37.1 °F 29.22 in Calm     94 % 0.00 in 33 W/m2
10:11 38.7 °F 37.1 °F 29.22 in Calm     94 % 0.00 in 33 W/m2
10:13 38.7 °F 37.1 °F 29.22 in Calm     94 % 0.00 in 33 W/m2
10:17 38.7 °F 37.1 °F 29.22 in Calm     94 % 0.00 in 35 W/m2
10:20 38.7 °F 37.1 °F 29.22 in Calm     94 % 0.00 in 32 W/m2
10:23 38.8 °F 37.3 °F 29.22 in Calm     94 % 0.00 in 28 W/m2
10:28 38.8 °F 37.3 °F 29.22 in Calm     94 % 0.00 in 23 W/m2
10:34 38.8 °F 37.3 °F 29.23 in Calm     94 % 0.00 in 25 W/m2
10:36 38.8 °F 37.3 °F 29.23 in Calm     94 % 0.00 in 26 W/m2
10:41 38.8 °F 37.3 °F 29.23 in Calm     94 % 0.00 in 33 W/m2
10:46 38.8 °F 37.3 °F 29.23 in Calm     94 % 0.00 in 39 W/m2
10:50 38.8 °F 37.3 °F 29.23 in Calm     94 % 0.00 in 40 W/m2
10:53 39.0 °F 37.4 °F 29.23 in NNE 2.0 mph 5.0 mph 94 % 0.00 in 42 W/m2
10:55 39.0 °F 37.4 °F 29.23 in NNE 2.0 mph 6.0 mph 94 % 0.00 in 44 W/m2
10:59 39.0 °F 37.4 °F 29.23 in North 1.0 mph 5.0 mph 94 % 0.00 in 46 W/m2
11:00 39.0 °F 37.4 °F 29.23 in North 2.0 mph 6.0 mph 94 % 0.00 in 46 W/m2
11:05 39.0 °F 37.2 °F 29.23 in NE 1.0 mph 4.0 mph 93 % 0.00 in 46 W/m2
11:11 39.2 °F 37.6 °F 29.23 in North 2.0 mph 5.0 mph 94 % 0.00 in 40 W/m2
11:14 39.2 °F 37.6 °F 29.23 in NNE 2.0 mph 7.0 mph 94 % 0.00 in 33 W/m2
11:19 39.2 °F 37.6 °F 29.23 in NNE 2.0 mph 6.0 mph 94 % 0.00 in 28 W/m2
11:24 39.2 °F 37.6 °F 29.23 in Calm   1.0 mph 94 % 0.00 in 33 W/m2
11:29 39.2 °F 37.6 °F 29.22 in Calm     94 % 0.00 in 44 W/m2
11:30 39.2 °F 37.6 °F 29.22 in Calm   1.0 mph 94 % 0.00 in 44 W/m2
11:35 39.2 °F 37.6 °F 29.23 in NNE 1.0 mph 2.0 mph 94 % 0.00 in 58 W/m2
11:37 39.4 °F 37.8 °F 29.22 in NE 1.0 mph 3.0 mph 94 % 0.00 in 65 W/m2
11:38 39.4 °F 37.8 °F 29.22 in NE 1.0 mph 3.0 mph 94 % 0.00 in 67 W/m2
11:43 39.4 °F 37.8 °F 29.22 in NE 1.0 mph 4.0 mph 94 % 0.00 in 67 W/m2
11:47 39.4 °F 37.8 °F 29.22 in NE 1.0 mph 3.0 mph 94 % 0.00 in 67 W/m2
11:52 39.6 °F 38.0 °F 29.22 in NE 1.0 mph 2.0 mph 94 % 0.00 in 77 W/m2
11:55 39.6 °F 38.0 °F 29.22 in Calm     94 % 0.00 in 81 W/m2
12:00 39.6 °F 38.0 °F 29.22 in Calm   2.0 mph 94 % 0.00 in 72 W/m2
12:06 39.7 °F 38.2 °F 29.22 in NE 1.0 mph 5.0 mph 94 % 0.00 in 76 W/m2
12:07 39.7 °F 38.2 °F 29.22 in NE 1.0 mph 5.0 mph 94 % 0.00 in 77 W/m2
12:12 39.7 °F 38.2 °F 29.23 in NE 2.0 mph 5.0 mph 94 % 0.00 in 81 W/m2
12:16 39.7 °F 38.2 °F 29.23 in NE 2.0 mph 5.0 mph 94 % 0.00 in 77 W/m2
12:21 39.7 °F 38.2 °F 29.23 in ENE 1.0 mph 5.0 mph 94 % 0.00 in 83 W/m2
12:26 39.7 °F 38.2 °F 29.23 in Calm   2.0 mph 94 % 0.00 in 77 W/m2
12:31 39.9 °F 38.3 °F 29.23 in North 1.0 mph 4.0 mph 94 % 0.00 in 54 W/m2
12:33 39.9 °F 38.3 °F 29.23 in NNE 2.0 mph 4.0 mph 94 % 0.00 in 60 W/m2
12:38 39.9 °F 38.3 °F 29.23 in North 1.0 mph 5.0 mph 94 % 0.00 in 77 W/m2
12:40 39.9 °F 38.3 °F 29.23 in Calm   3.0 mph 94 % 0.00 in 76 W/m2
12:45 40.1 °F 38.5 °F 29.23 in NE 2.0 mph 5.0 mph 94 % 0.00 in 63 W/m2
12:47 40.1 °F 38.5 °F 29.23 in North 1.0 mph 6.0 mph 94 % 0.00 in 47 W/m2
12:52 40.3 °F 38.7 °F 29.24 in NNW 6.0 mph 8.0 mph 94 % 0.00 in 46 W/m2
12:54 40.3 °F 38.7 °F 29.24 in North 5.0 mph 8.0 mph 94 % 0.00 in 63 W/m2
12:59 40.3 °F 38.7 °F 29.24 in NNW 6.0 mph 8.0 mph 94 % 0.00 in 81 W/m2
13:04 40.1 °F 38.2 °F 29.24 in NNW 3.0 mph 8.0 mph 93 % 0.00 in 74 W/m2
13:09 39.9 °F 38.1 °F 29.24 in NNW 5.0 mph 9.0 mph 93 % 0.00 in 84 W/m2
13:12 39.9 °F 38.1 °F 29.24 in NNW 5.0 mph 9.0 mph 93 % 0.00 in 84 W/m2
13:17 39.9 °F 38.1 °F 29.24 in North 3.0 mph 7.0 mph 93 % 0.00 in 84 W/m2
13:22 39.9 °F 38.1 °F 29.25 in North 2.0 mph 4.0 mph 93 % 0.00 in 77 W/m2
13:25 40.1 °F 38.2 °F 29.25 in North 4.0 mph 8.0 mph 93 % 0.00 in 70 W/m2
13:30 40.1 °F 38.2 °F 29.25 in NNW 3.0 mph 6.0 mph 93 % 0.00 in 67 W/m2
13:31 40.1 °F 38.2 °F 29.25 in NNW 3.0 mph 6.0 mph 93 % 0.00 in 67 W/m2
13:36 40.3 °F 38.4 °F 29.25 in NNW 4.0 mph 8.0 mph 93 % 0.00 in 62 W/m2
13:37 40.3 °F 38.4 °F 29.25 in NNW 4.0 mph 9.0 mph 93 % 0.00 in 62 W/m2
13:42 40.3 °F 38.4 °F 29.26 in NNW 3.0 mph 7.0 mph 93 % 0.00 in 54 W/m2
13:44 40.3 °F 38.4 °F 29.26 in NNW 2.0 mph 6.0 mph 93 % 0.00 in 54 W/m2
13:47 40.3 °F 38.4 °F 29.26 in NNW 4.0 mph 8.0 mph 93 % 0.00 in 63 W/m2
13:52 40.5 °F 38.6 °F 29.26 in NNW 4.0 mph 8.0 mph 93 % 0.00 in 88 W/m2
13:58 40.5 °F 38.3 °F 29.26 in NNW 4.0 mph 6.0 mph 92 % 0.00 in 146 W/m2
14:03 40.6 °F 38.5 °F 29.26 in NW 2.0 mph 7.0 mph 92 % 0.00 in 98 W/m2
14:04 40.6 °F 38.5 °F 29.26 in NNW 2.0 mph 6.0 mph 92 % 0.00 in 95 W/m2
14:09 40.8 °F 38.4 °F 29.26 in NW 3.0 mph 7.0 mph 91 % 0.00 in 95 W/m2
14:13 40.8 °F 38.4 °F 29.27 in NW 4.0 mph 6.0 mph 91 % 0.00 in 98 W/m2
14:14 40.8 °F 38.4 °F 29.27 in NW 3.0 mph 7.0 mph 91 % 0.00 in 95 W/m2
14:19 41.0 °F 38.6 °F 29.27 in NW 5.0 mph 11.0 mph 91 % 0.00 in 86 W/m2
14:20 41.0 °F 38.6 °F 29.27 in NW 6.0 mph 11.0 mph 91 % 0.00 in 86 W/m2
14:22 41.0 °F 38.3 °F 29.27 in NW 5.0 mph 10.0 mph 90 % 0.00 in 81 W/m2
14:27 41.0 °F 38.6 °F 29.27 in NW 4.0 mph 6.0 mph 91 % 0.00 in 69 W/m2
14:33 41.2 °F 38.8 °F 29.28 in NW 2.0 mph 6.0 mph 91 % 0.00 in 65 W/m2
14:38 41.2 °F 38.8 °F 29.28 in NW 2.0 mph 6.0 mph 91 % 0.00 in 67 W/m2
14:39 41.2 °F 38.8 °F 29.28 in NW 2.0 mph 6.0 mph 91 % 0.00 in 67 W/m2
14:45 41.2 °F 38.8 °F 29.28 in NW 3.0 mph 6.0 mph 91 % 0.00 in 77 W/m2
14:46 41.2 °F 38.8 °F 29.28 in NW 2.0 mph 6.0 mph 91 % 0.00 in 70 W/m2
14:51 41.2 °F 38.8 °F 29.28 in NW 3.0 mph 7.0 mph 91 % 0.00 in 67 W/m2
14:56 41.4 °F 38.9 °F 29.28 in NW 3.0 mph 5.0 mph 91 % 0.00 in 56 W/m2
14:58 41.2 °F 38.8 °F 29.28 in NW 2.0 mph 6.0 mph 91 % 0.00 in 54 W/m2
15:03 41.4 °F 38.9 °F 29.29 in NW 3.0 mph 6.0 mph 91 % 0.00 in 44 W/m2
15:07 41.4 °F 38.9 °F 29.29 in WNW 3.0 mph 6.0 mph 91 % 0.00 in 35 W/m2
15:12 41.4 °F 38.6 °F 29.29 in WNW 3.0 mph 6.0 mph 90 % 0.00 in 23 W/m2
15:17 41.4 °F 38.9 °F 29.29 in WNW 4.0 mph 6.0 mph 91 % 0.00 in 21 W/m2
15:18 41.4 °F 38.9 °F 29.29 in WNW 3.0 mph 6.0 mph 91 % 0.00 in 21 W/m2
15:23 41.4 °F 38.9 °F 29.30 in WNW 3.0 mph 6.0 mph 91 % 0.00 in 19 W/m2
15:24 41.4 °F 38.9 °F 29.30 in WNW 3.0 mph 6.0 mph 91 % 0.00 in 19 W/m2
15:29 41.5 °F 38.8 °F 29.30 in NW 2.0 mph 5.0 mph 90 % 0.00 in 18 W/m2
15:30 41.4 °F 38.6 °F 29.30 in NW 2.0 mph 6.0 mph 90 % 0.00 in 16 W/m2
15:35 41.4 °F 38.6 °F 29.30 in NW 1.0 mph 4.0 mph 90 % 0.00 in 16 W/m2
15:40 41.4 °F 38.6 °F 29.30 in WNW 1.0 mph 6.0 mph 90 % 0.00 in 12 W/m2
15:41 41.4 °F 38.6 °F 29.30 in WNW 2.0 mph 6.0 mph 90 % 0.00 in 12 W/m2
15:48 41.2 °F 38.5 °F 29.31 in NW 2.0 mph 4.0 mph 90 % 0.00 in 7 W/m2
15:54 41.2 °F 38.5 °F 29.31 in NW 2.0 mph 6.0 mph 90 % 0.00 in 5 W/m2
15:59 41.0 °F 38.0 °F 29.31 in NW 2.0 mph 5.0 mph 89 % 0.00 in 0 W/m2
16:00 41.0 °F 38.0 °F 29.32 in NW 2.0 mph 5.0 mph 89 % 0.00 in 0 W/m2
16:05 40.8 °F 37.8 °F 29.32 in NW 2.0 mph 5.0 mph 89 % 0.00 in 0 W/m2
16:10 40.8 °F 37.8 °F 29.32 in WNW 3.0 mph 6.0 mph 89 % 0.00 in 0 W/m2
16:15 40.6 °F 37.7 °F 29.32 in WNW 2.0 mph 6.0 mph 89 % 0.00 in 0 W/m2
16:16 40.6 °F 37.7 °F 29.32 in WNW 2.0 mph 6.0 mph 89 % 0.00 in 0 W/m2
16:21 40.5 °F 37.5 °F 29.32 in WNW 3.0 mph 5.0 mph 89 % 0.00 in 0 W/m2
16:32 40.3 °F 37.3 °F 29.33 in NW 3.0 mph 4.0 mph 89 % 0.00 in 0 W/m2
16:37 39.9 °F 36.9 °F 29.33 in NW 3.0 mph 6.0 mph 89 % 0.00 in 0 W/m2
16:42 39.9 °F 36.9 °F 29.33 in NW 1.0 mph 5.0 mph 89 % 0.00 in 0 W/m2
16:47 39.7 °F 36.5 °F 29.34 in NW 3.0 mph 5.0 mph 88 % 0.00 in 0 W/m2
16:56 39.6 °F 36.3 °F 29.34 in NW 3.0 mph 6.0 mph 88 % 0.00 in 0 W/m2
16:59 39.4 °F 36.4 °F 29.34 in WNW 4.0 mph 8.0 mph 89 % 0.00 in 0 W/m2
17:04 39.4 °F 36.4 °F 29.34 in WNW 5.0 mph 9.0 mph 89 % 0.00 in 0 W/m2
17:05 39.6 °F 36.6 °F 29.34 in WNW 5.0 mph 9.0 mph 89 % 0.00 in 0 W/m2
17:10 39.4 °F 36.4 °F 29.35 in West 2.0 mph 5.0 mph 89 % 0.00 in 0 W/m2
17:12 39.4 °F 36.4 °F 29.35 in Calm   2.0 mph 89 % 0.00 in 0 W/m2
17:17 39.2 °F 36.2 °F 29.35 in Calm     89 % 0.00 in 0 W/m2
17:20 39.0 °F 36.1 °F 29.36 in West 1.0 mph 4.0 mph 89 % 0.00 in 0 W/m2
17:25 38.8 °F 35.9 °F 29.36 in West 1.0 mph 2.0 mph 89 % 0.00 in 0 W/m2
17:28 38.8 °F 35.9 °F 29.36 in Calm   2.0 mph 89 % 0.00 in 0 W/m2
17:33 38.7 °F 35.7 °F 29.36 in Calm   2.0 mph 89 % 0.00 in 0 W/m2
17:37 38.5 °F 35.5 °F 29.36 in Calm   1.0 mph 89 % 0.00 in 0 W/m2
17:42 38.1 °F 35.2 °F 29.36 in West 2.0 mph 4.0 mph 89 % 0.00 in 0 W/m2
17:43 38.1 °F 35.2 °F 29.36 in West 2.0 mph 4.0 mph 89 % 0.00 in 0 W/m2
17:48 37.9 °F 35.0 °F 29.37 in West 2.0 mph 4.0 mph 89 % 0.00 in 0 W/m2
17:53 37.8 °F 35.1 °F 29.37 in West 2.0 mph 5.0 mph 90 % 0.00 in 0 W/m2
17:55 37.6 °F 34.9 °F 29.37 in West 2.0 mph 4.0 mph 90 % 0.00 in 0 W/m2
18:00 37.6 °F 34.9 °F 29.38 in West 3.0 mph 4.0 mph 90 % 0.00 in 0 W/m2
18:02 37.6 °F 34.9 °F 29.38 in West 3.0 mph 5.0 mph 90 % 0.00 in 0 W/m2
18:07 37.4 °F 34.7 °F 29.38 in WNW 4.0 mph 6.0 mph 90 % 0.00 in 0 W/m2
18:09 37.4 °F 35.0 °F 29.38 in WNW 4.0 mph 7.0 mph 91 % 0.00 in 0 W/m2
18:14 37.4 °F 35.0 °F 29.38 in WNW 3.0 mph 5.0 mph 91 % 0.00 in 0 W/m2
18:17 37.4 °F 35.0 °F 29.38 in WNW 3.0 mph 5.0 mph 91 % 0.00 in 0 W/m2
18:22 37.2 °F 34.8 °F 29.38 in WNW 3.0 mph 6.0 mph 91 % 0.00 in 0 W/m2
18:27 37.2 °F 34.8 °F 29.38 in WNW 4.0 mph 6.0 mph 91 % 0.00 in 0 W/m2
18:28 37.2 °F 34.8 °F 29.38 in WNW 4.0 mph 6.0 mph 91 % 0.00 in 0 W/m2
18:33 37.0 °F 34.7 °F 29.38 in WNW 4.0 mph 6.0 mph 91 % 0.00 in 0 W/m2
18:38 36.9 °F 34.5 °F 29.39 in WNW 3.0 mph 6.0 mph 91 % 0.00 in 0 W/m2
18:44 36.9 °F 34.8 °F 29.39 in NW 4.0 mph 6.0 mph 92 % 0.00 in 0 W/m2
18:45 36.9 °F 34.8 °F 29.39 in NW 3.0 mph 6.0 mph 92 % 0.00 in 0 W/m2
18:50 36.9 °F 34.8 °F 29.39 in WNW 4.0 mph 6.0 mph 92 % 0.00 in 0 W/m2
18:55 36.9 °F 34.8 °F 29.39 in NW 3.0 mph 7.0 mph 92 % 0.00 in 0 W/m2
18:56 36.9 °F 34.8 °F 29.39 in NW 3.0 mph 7.0 mph 92 % 0.00 in 0 W/m2
19:01 36.9 °F 34.8 °F 29.40 in WNW 3.0 mph 6.0 mph 92 % 0.00 in 0 W/m2
19:03 36.9 °F 34.8 °F 29.40 in WNW 3.0 mph 5.0 mph 92 % 0.00 in 0 W/m2
19:06 36.9 °F 34.8 °F 29.40 in WNW 1.0 mph 6.0 mph 92 % 0.00 in 0 W/m2
19:10 36.7 °F 34.6 °F 29.40 in Calm   1.0 mph 92 % 0.00 in 0 W/m2
19:15 36.5 °F 34.1 °F 29.41 in Calm   1.0 mph 91 % 0.00 in 0 W/m2
19:18 36.3 °F 33.9 °F 29.40 in Calm     91 % 0.00 in 0 W/m2
19:21 36.1 °F 33.8 °F 29.41 in Calm     91 % 0.00 in 0 W/m2
19:26 35.8 °F 33.4 °F 29.41 in Calm     91 % 0.00 in 0 W/m2
19:29 35.6 °F 33.2 °F 29.41 in WNW 1.0 mph 2.0 mph 91 % 0.00 in 0 W/m2
19:33 35.4 °F 33.1 °F 29.41 in Calm   2.0 mph 91 % 0.00 in 0 W/m2
19:34 35.4 °F 33.1 °F 29.41 in WNW 1.0 mph 2.0 mph 91 % 0.00 in 0 W/m2
19:39 35.2 °F 33.1 °F 29.41 in WNW 2.0 mph 4.0 mph 92 % 0.00 in 0 W/m2
19:44 35.1 °F 33.0 °F 29.42 in WNW 1.0 mph 2.0 mph 92 % 0.00 in 0 W/m2
19:47 35.1 °F 33.0 °F 29.42 in Calm     92 % 0.00 in 0 W/m2
19:52 34.9 °F 32.8 °F 29.42 in Calm     92 % 0.00 in 0 W/m2
20:02 34.5 °F 32.4 °F 29.43 in Calm     92 % 0.00 in 0 W/m2
20:07 34.3 °F 32.5 °F 29.43 in Calm     93 % 0.00 in 0 W/m2
20:08 34.3 °F 32.5 °F 29.43 in Calm     93 % 0.00 in 0 W/m2
20:09 34.3 °F 32.5 °F 29.43 in Calm     93 % 0.00 in 0 W/m2
20:14 34.3 °F 32.5 °F 29.44 in Calm     93 % 0.00 in 0 W/m2
20:19 34.3 °F 32.5 °F 29.44 in Calm     93 % 0.00 in 0 W/m2
20:20 34.3 °F 32.5 °F 29.44 in Calm     93 % 0.00 in 0 W/m2
20:25 34.2 °F 32.3 °F 29.44 in Calm   2.0 mph 93 % 0.00 in 0 W/m2
20:30 34.2 °F 32.3 °F 29.44 in WNW 1.0 mph 3.0 mph 93 % 0.00 in 0 W/m2
20:37 34.3 °F 32.8 °F 29.45 in WNW 3.0 mph 5.0 mph 94 % 0.00 in 0 W/m2
20:38 34.3 °F 32.8 °F 29.45 in WNW 3.0 mph 5.0 mph 94 % 0.00 in 0 W/m2
20:43 34.5 °F 33.0 °F 29.45 in WNW 3.0 mph 5.0 mph 94 % 0.00 in 0 W/m2
20:48 34.5 °F 33.0 °F 29.45 in WNW 4.0 mph 5.0 mph 94 % 0.00 in 0 W/m2
20:50 34.5 °F 33.0 °F 29.45 in WNW 4.0 mph 6.0 mph 94 % 0.00 in 0 W/m2
20:55 34.5 °F 33.0 °F 29.46 in WNW 4.0 mph 6.0 mph 94 % 0.00 in 0 W/m2
21:01 34.9 °F 33.3 °F 29.46 in WNW 4.0 mph 6.0 mph 94 % 0.00 in 0 W/m2
21:07 35.1 °F 33.8 °F 29.46 in NW 4.0 mph 7.0 mph 95 % 0.00 in 0 W/m2
21:12 35.4 °F 34.1 °F 29.46 in NW 4.0 mph 6.0 mph 95 % 0.00 in 0 W/m2
21:17 35.6 °F 34.3 °F 29.47 in NW 2.0 mph 5.0 mph 95 % 0.00 in 0 W/m2
21:23 35.6 °F 34.3 °F 29.47 in NW 4.0 mph 6.0 mph 95 % 0.00 in 0 W/m2
21:28 35.8 °F 34.5 °F 29.47 in NW 4.0 mph 7.0 mph 95 % 0.00 in 0 W/m2
21:30 35.6 °F 34.3 °F 29.47 in NW 4.0 mph 7.0 mph 95 % 0.00 in 0 W/m2
21:32 35.8 °F 34.5 °F 29.47 in WNW 5.0 mph 7.0 mph 95 % 0.00 in 0 W/m2
21:37 35.8 °F 34.5 °F 29.47 in WNW 3.0 mph 6.0 mph 95 % 0.00 in 0 W/m2
21:42 36.0 °F 34.7 °F 29.48 in NW 4.0 mph 6.0 mph 95 % 0.00 in 0 W/m2
21:47 36.0 °F 34.7 °F 29.48 in NW 5.0 mph 7.0 mph 95 % 0.00 in 0 W/m2
21:52 36.1 °F 34.8 °F 29.48 in NW 3.0 mph 5.0 mph 95 % 0.00 in 0 W/m2
21:58 36.1 °F 34.8 °F 29.49 in WNW 3.0 mph 6.0 mph 95 % 0.00 in 0 W/m2
21:59 36.1 °F 34.8 °F 29.49 in WNW 3.0 mph 6.0 mph 95 % 0.00 in 0 W/m2
22:02 36.1 °F 34.8 °F 29.49 in NW 4.0 mph 6.0 mph 95 % 0.00 in 0 W/m2
22:07 36.0 °F 34.4 °F 29.49 in NW 4.0 mph 6.0 mph 94 % 0.00 in 0 W/m2
22:10 36.0 °F 34.7 °F 29.49 in NW 4.0 mph 6.0 mph 95 % 0.00 in 0 W/m2
22:15 36.0 °F 34.7 °F 29.50 in NW 2.0 mph 4.0 mph 95 % 0.00 in 0 W/m2
22:16 36.0 °F 34.7 °F 29.50 in NW 2.0 mph 4.0 mph 95 % 0.00 in 0 W/m2
22:21 35.8 °F 34.2 °F 29.50 in Calm   2.0 mph 94 % 0.00 in 0 W/m2
22:26 35.2 °F 33.4 °F 29.50 in Calm     93 % 0.00 in 0 W/m2
22:31 34.9 °F 33.1 °F 29.50 in Calm     93 % 0.00 in 0 W/m2
22:34 34.5 °F 32.7 °F 29.51 in Calm     93 % 0.00 in 0 W/m2
22:39 34.3 °F 32.8 °F 29.51 in NW 2.0 mph 4.0 mph 94 % 0.00 in 0 W/m2
22:44 34.5 °F 33.0 °F 29.51 in NW 1.0 mph 2.0 mph 94 % 0.00 in 0 W/m2
22:48 34.5 °F 33.2 °F 29.51 in Calm     95 % 0.00 in 0 W/m2
22:53 34.7 °F 33.4 °F 29.52 in Calm     95 % 0.00 in 0 W/m2
23:04 34.3 °F 32.8 °F 29.52 in Calm     94 % 0.00 in 0 W/m2
23:07 34.3 °F 32.8 °F 29.52 in Calm     94 % 0.00 in 0 W/m2
23:12 34.3 °F 33.1 °F 29.53 in Calm     95 % 0.00 in 0 W/m2
23:14 34.3 °F 33.1 °F 29.53 in Calm   4.0 mph 95 % 0.00 in 0 W/m2
23:17 34.3 °F 33.1 °F 29.52 in NW 2.0 mph 4.0 mph 95 % 0.00 in 0 W/m2
23:22 34.3 °F 33.1 °F 29.53 in Calm   1.0 mph 95 % 0.00 in 0 W/m2
23:24 34.5 °F 33.2 °F 29.53 in NW 1.0 mph 2.0 mph 95 % 0.00 in 0 W/m2
23:29 34.5 °F 33.2 °F 29.53 in NW 1.0 mph 5.0 mph 95 % 0.00 in 0 W/m2
23:30 34.5 °F 33.2 °F 29.53 in NW 1.0 mph 5.0 mph 95 % 0.00 in 0 W/m2
23:35 34.9 °F 33.6 °F 29.54 in NW 1.0 mph 4.0 mph 95 % 0.00 in 0 W/m2
23:41 35.1 °F 33.8 °F 29.54 in Calm     95 % 0.00 in 0 W/m2
23:45 35.1 °F 33.8 °F 29.54 in Calm   2.0 mph 95 % 0.00 in 0 W/m2
23:50 35.1 °F 33.8 °F 29.54 in NW 2.0 mph 5.0 mph 95 % 0.00 in 0 W/m2
23:51 35.1 °F 33.8 °F 29.54 in NW 3.0 mph 5.0 mph 95 % 0.00 in 0 W/m2
23:56 35.2 °F 34.0 °F 29.54 in NW 2.0 mph 6.0 mph 95 % 0.00 in 0 W/m2
23:59 35.4 °F 34.4 °F 29.54 in NW 4.0 mph 7.0 mph 96 % 0.00 in 0 W/m2
Delerius-Weather
Compliments of Weather Underground - 2.75 mb

Data updates at regular intervals.